Owens Cross Roads, AL (35763)

10:04 PM CDT on October 01, 2014 (GMT -0500)
Southampton | Change Station
CLOSE
Current Station
Personal Weather Station
Location: Owens Cross Roads, AL
Elevation: 615 ft
Nearby Weather Stations

Elev 615 ft 34.63 °N, 86.49 °W | Updated 0 second ago

Clear
Clear
66.9 °F
Feels Like 66.9 °F
N
0.0
Wind Variable Wind from ENE
Gusts 0.0 mph

Today
High -- | Low -- °F
--% Chance of Precip.
Yesterday
High -- | Low -- °F
Precip. -- in
6:40 AM 6:29 PM
First Quarter, 54% visible
Pressure 29.97 in
Visibility 10.0 miles
Clouds Clear
Dew Point 50 °F
Humidity 55%
Rainfall 0.00 in
Snow Depth Not available.
UV 0 out of 12
Pollen 5.70 out of 12
Ozone Good
PM2.5 Moderate
Flu Activity Not available.
METAR KHSV 020253Z 10005KT 10SM CLR 21/16 A2999 RMK AO2 SLP148 T02110156 51016

More Conditions Fewer Conditions

Pressure 29.97 in
Visibility 10.0 miles
Clouds Clear
Dew Point 50 °F
Humidity 55%
Rainfall 0.00 in
Snow Depth Not available.
UV 0 out of 12
Pollen 5.70 out of 12
Ozone Good
PM2.5 Moderate
Flu Activity Not available.
METAR KHSV 020253Z 10005KT 10SM CLR 21/16 A2999 RMK AO2 SLP148 T02110156 51016

More Conditions Fewer Conditions

10-Day Weather Forecast

Almanac

Astronomy

Oct. 01, 2014 Rise Set
Actual Time 6:40 AM CDT 6:29 PM CDT
Civil Twilight 6:15 AM CDT 6:54 PM CDT
Nautical Twilight 5:46 AM CDT 7:24 PM CDT
Astronomical Twilight 5:16 AM CDT 7:53 PM CDT
Moon 1:30 PM CDT (10/1) No Moon Set
Length of Visible Light 12h 39m
Length of Day
11h 49m
Tomorrow will be 2m 10s shorter.
First Quarter, 54% of the Moon is Illuminated
Today
First Quarter
Oct 8
Full
Oct 15
Last Quarter
Oct 23
New
Oct 30
First Quarter

Today's Extremes

State Highs State Lows

Community

WunderPhotos

Upload Photos

1,758,157 photos uploaded!

WunderBlogs® & News

Nearby

Air Quality

  Air Quality AQ Index Pollutant
Yesterday Moderate
PM2.5
Yesterday Good
OZONE
Current Moderate
PM2.5
Current Good
OZONE
Wednesday Moderate
PM2.5
Wednesday Good
OZONE
Thursday Moderate
PM2.5
Thursday Good
OZONE

Snow Depth

Station Depth Elevation
No new snow has been reported.

Earthquake Activity

City Distance Mag. Time & Date
No recent earthquake activity has been reported nearby.
Minimum magnitude displayed is 2.5.

Coastal Water Temperatures

Place Temperature
No Stations Reporting

Nearby Weather Stations